Time;durP1;ratioP1;P1;durP2;ratioP2;P2;SDS_P1;SDS_P2;PMS_P1;PMS_P2;Temp;Humidity;BMP_temperature;BMP_pressure;BME280_temperature;BME280_humidity;BME280_pressure;Samples;Min_cycle;Max_cycle;Signal;HPM_P1;HPM_P2
2022/02/27 00:00:32;;;;;;;14.37;7.00;;;;;;;3.33;53.87;101767.98;1430822;90;21660;-83
2022/02/27 00:02:59;;;;;;;26.10;8.00;;;;;;;3.34;53.60;101767.09;1424713;90;21513;-83
2022/02/27 00:05:26;;;;;;;15.60;5.90;;;;;;;3.36;53.84;101759.99;1469471;88;22655;-83
2022/02/27 00:07:55;;;;;;;20.10;8.03;;;;;;;3.35;54.33;101760.92;1432801;91;21800;-83
2022/02/27 00:10:23;;;;;;;16.23;7.67;;;;;;;3.28;53.74;101752.51;1427696;91;21646;-83
2022/02/27 00:12:52;;;;;;;12.20;7.40;;;;;;;3.32;53.64;101759.29;1452592;89;23035;-84
2022/02/27 00:15:19;;;;;;;15.60;6.60;;;;;;;3.33;53.69;101754.44;1441061;89;21623;-83
2022/02/27 00:17:47;;;;;;;14.97;8.63;;;;;;;3.32;53.73;101751.44;1443723;90;21816;-83
2022/02/27 00:20:22;;;;;;;15.17;8.23;;;;;;;3.35;53.73;101752.61;1470149;88;21691;-84
2022/02/27 00:22:50;;;;;;;23.00;9.27;;;;;;;3.35;53.34;101747.84;1472072;88;21620;-83
2022/02/27 00:25:17;;;;;;;12.17;6.70;;;;;;;3.40;53.40;101749.80;1473550;88;21645;-83
2022/02/27 00:27:47;;;;;;;15.77;6.47;;;;;;;3.44;53.43;101752.66;1429436;91;21579;-84
2022/02/27 00:30:14;;;;;;;15.37;6.60;;;;;;;3.44;53.76;101755.73;1426802;91;21738;-83
2022/02/27 00:32:42;;;;;;;15.90;6.00;;;;;;;3.38;53.66;101751.63;1430840;91;23129;-83
2022/02/27 00:35:11;;;;;;;12.03;5.97;;;;;;;3.35;53.77;101753.07;1423321;89;21509;-83
2022/02/27 00:37:38;;;;;;;13.03;6.17;;;;;;;3.30;53.92;101748.50;1427756;89;21764;-83
2022/02/27 00:40:07;;;;;;;15.10;7.50;;;;;;;3.23;54.23;101750.55;1443660;89;21652;-84
2022/02/27 00:42:35;;;;;;;11.70;7.03;;;;;;;3.06;54.18;101743.90;1443114;91;21690;-84
2022/02/27 00:45:05;;;;;;;11.70;5.60;;;;;;;2.94;54.38;101736.97;1461648;88;21583;-83
2022/02/27 00:47:32;;;;;;;12.30;7.17;;;;;;;2.90;54.21;101739.31;1433422;91;21400;-83
2022/02/27 00:50:00;;;;;;;16.23;6.37;;;;;;;2.87;54.28;101738.60;1470702;88;21814;-83
2022/02/27 00:52:28;;;;;;;11.00;6.10;;;;;;;2.87;54.30;101738.14;1443489;88;21650;-84
2022/02/27 00:54:56;;;;;;;12.33;5.57;;;;;;;2.87;54.55;101730.76;1468542;88;21627;-84
2022/02/27 00:57:23;;;;;;;14.00;5.63;;;;;;;2.80;55.04;101730.64;1452238;88;21860;-84
2022/02/27 00:59:51;;;;;;;9.03;4.93;;;;;;;2.70;54.60;101731.05;1466856;88;21692;-83
2022/02/27 01:02:18;;;;;;;13.93;5.53;;;;;;;2.60;55.00;101732.33;1470918;88;21775;-83
2022/02/27 01:04:46;;;;;;;18.00;7.60;;;;;;;2.50;55.19;101728.39;1466383;88;21899;-83
2022/02/27 01:07:13;;;;;;;11.83;5.60;;;;;;;2.45;55.12;101731.67;1467737;88;22930;-83
2022/02/27 01:09:42;;;;;;;13.53;6.67;;;;;;;2.44;55.82;101732.57;1425831;91;24215;-83
2022/02/27 01:12:10;;;;;;;10.67;5.13;;;;;;;2.44;55.39;101737.80;1468334;88;21937;-83
2022/02/27 01:14:39;;;;;;;10.53;4.80;;;;;;;2.48;55.58;101736.78;1468921;88;21782;-84
2022/02/27 01:17:07;;;;;;;15.43;5.43;;;;;;;2.49;55.52;101741.08;1476331;88;21607;-83
2022/02/27 01:19:35;;;;;;;12.63;5.67;;;;;;;2.48;55.67;101738.92;1470241;88;22565;-83
2022/02/27 01:22:08;;;;;;;15.90;6.73;;;;;;;2.41;56.14;101743.15;1426973;91;21860;-84
2022/02/27 01:24:36;;;;;;;11.20;5.63;;;;;;;2.33;56.21;101742.61;1467869;88;21469;-84
2022/02/27 01:27:06;;;;;;;15.07;6.53;;;;;;;2.24;56.34;101733.38;1472473;88;22684;-83
2022/02/27 01:29:42;;;;;;;15.77;7.23;;;;;;;2.18;56.73;101733.64;1470138;88;21768;-83
2022/02/27 01:32:09;;;;;;;16.83;7.57;;;;;;;2.14;56.34;101732.92;1471647;88;21605;-84
2022/02/27 01:34:37;;;;;;;18.33;7.60;;;;;;;2.09;56.76;101734.86;1468807;88;21643;-84
2022/02/27 01:37:05;;;;;;;17.43;7.90;;;;;;;2.03;56.78;101736.41;1426544;91;21935;-84
2022/02/27 01:39:33;;;;;;;13.70;6.13;;;;;;;1.97;57.27;101739.27;1424046;91;22929;-84
2022/02/27 01:42:01;;;;;;;15.97;7.37;;;;;;;1.92;57.33;101737.28;1444865;89;21702;-84
2022/02/27 01:44:29;;;;;;;12.93;6.30;;;;;;;1.87;57.33;101728.77;1474125;88;21537;-84
2022/02/27 01:46:59;;;;;;;12.80;6.63;;;;;;;1.86;57.54;101734.92;1468956;88;21633;-84
2022/02/27 01:49:32;;;;;;;18.33;6.63;;;;;;;1.83;57.51;101733.73;1428876;91;21678;-84
2022/02/27 01:52:01;;;;;;;12.43;5.77;;;;;;;1.74;57.82;101730.56;1406988;91;21616;-84
2022/02/27 01:54:30;;;;;;;12.63;5.73;;;;;;;1.69;58.11;101729.88;1424142;91;21860;-84
2022/02/27 01:56:59;;;;;;;12.63;5.37;;;;;;;1.63;58.46;101732.73;1470756;88;21703;-84
2022/02/27 01:59:27;;;;;;;12.27;5.87;;;;;;;1.58;58.50;101736.84;1470013;88;21878;-84
2022/02/27 02:01:55;;;;;;;11.23;5.67;;;;;;;1.52;58.73;101734.43;1423956;91;21643;-84
2022/02/27 02:04:22;;;;;;;15.63;6.23;;;;;;;1.48;58.75;101730.70;1453510;88;21710;-84
2022/02/27 02:06:50;;;;;;;11.10;5.67;;;;;;;1.46;59.24;101728.60;1462610;88;22468;-85
2022/02/27 02:09:17;;;;;;;15.70;7.33;;;;;;;1.49;58.92;101728.48;1446687;88;22594;-84
2022/02/27 02:11:45;;;;;;;18.10;7.20;;;;;;;1.51;58.80;101734.05;1466924;88;21551;-84
2022/02/27 02:14:13;;;;;;;13.77;6.43;;;;;;;1.50;59.57;101730.20;1469156;88;22567;-83
2022/02/27 02:16:52;;;;;;;11.30;5.87;;;;;;;1.44;59.76;101728.67;1465608;88;22800;-84
2022/02/27 02:19:23;;;;;;;15.50;6.97;;;;;;;1.44;59.63;101726.50;1467877;88;21745;-84
2022/02/27 02:21:54;;;;;;;15.15;6.33;;;;;;;1.49;59.42;101723.27;1462527;88;21695;-84
2022/02/27 02:24:22;;;;;;;9.08;5.60;;;;;;;1.54;59.55;101723.95;1470825;88;22402;-84
2022/02/27 02:26:50;;;;;;;13.20;5.63;;;;;;;1.59;59.84;101723.33;1441085;88;21534;-84
2022/02/27 02:29:21;;;;;;;13.83;7.90;;;;;;;1.62;59.82;101724.52;1465434;88;21818;-84
2022/02/27 02:31:50;;;;;;;11.70;5.53;;;;;;;1.68;59.54;101722.97;1548794;88;21662;-85
2022/02/27 02:34:22;;;;;;;9.37;5.53;;;;;;;1.73;59.71;101720.20;1548412;88;21476;-84
2022/02/27 02:36:49;;;;;;;;;;;;;;;1.77;59.90;101720.00;1529912;88;22471;-83
2022/02/27 02:39:21;;;;;;;13.90;5.70;;;;;;;1.73;60.15;101718.89;1551485;88;20841;-84
2022/02/27 02:41:50;;;;;;;14.37;5.50;;;;;;;1.68;59.80;101719.06;1414078;88;21442;-84
2022/02/27 02:44:18;;;;;;;13.73;5.57;;;;;;;1.61;59.64;101718.88;1548737;88;21719;-84
2022/02/27 02:46:46;;;;;;;9.40;5.07;;;;;;;1.51;59.73;101717.09;1472123;88;21490;-84
2022/02/27 02:49:14;;;;;;;12.57;5.63;;;;;;;1.41;59.80;101713.14;1466089;88;21587;-84
2022/02/27 02:51:43;;;;;;;10.67;5.70;;;;;;;1.43;59.47;101718.28;1468295;88;21705;-84
2022/02/27 02:54:11;;;;;;;17.40;6.70;;;;;;;1.47;60.37;101719.89;1461478;88;21626;-84
2022/02/27 02:56:45;;;;;;;14.90;5.60;;;;;;;1.48;59.96;101722.42;1465779;88;21487;-84
2022/02/27 02:59:13;;;;;;;12.27;5.40;;;;;;;1.46;60.77;101720.77;1446573;88;23376;-84
2022/02/27 03:01:40;;;;;;;16.07;6.73;;;;;;;1.48;60.34;101722.42;1463039;88;21642;-84
2022/02/27 03:04:07;;;;;;;16.37;6.93;;;;;;;1.53;60.46;101722.27;1466990;88;21582;-82
2022/02/27 03:06:35;;;;;;;18.03;7.20;;;;;;;1.55;60.43;101725.22;1473606;87;21639;-82
2022/02/27 03:09:03;;;;;;;24.53;8.27;;;;;;;1.58;60.52;101722.91;1447538;88;21862;-82
2022/02/27 03:11:31;;;;;;;15.70;7.03;;;;;;;1.55;60.68;101720.42;1470173;88;22116;-82
2022/02/27 03:14:00;;;;;;;17.50;7.87;;;;;;;1.52;61.53;101724.45;1430911;90;21562;-83
2022/02/27 03:16:29;;;;;;;20.80;9.37;;;;;;;1.44;61.43;101721.28;1422402;91;21759;-83
2022/02/27 03:18:58;;;;;;;26.97;10.10;;;;;;;1.37;61.98;101723.27;1467913;88;21798;-83
2022/02/27 03:21:26;;;;;;;23.17;11.10;;;;;;;1.32;62.15;101726.50;1470530;88;21783;-83
2022/02/27 03:23:53;;;;;;;26.97;9.83;;;;;;;1.26;62.53;101728.87;1475360;88;21625;-83
2022/02/27 03:26:24;;;;;;;17.73;7.40;;;;;;;1.21;62.67;101726.91;1471202;88;21932;-83
2022/02/27 03:28:51;;;;;;;15.53;7.97;;;;;;;1.16;63.05;101728.83;1473703;88;21630;-83
2022/02/27 03:31:30;;;;;;;15.80;7.93;;;;;;;1.19;62.49;101732.63;1470273;88;21435;-83
2022/02/27 03:33:57;;;;;;;21.97;8.40;;;;;;;1.24;62.40;101724.20;1449285;88;21600;-83
2022/02/27 03:36:24;;;;;;;17.67;8.57;;;;;;;1.30;62.32;101723.97;1428372;91;22248;-83
2022/02/27 03:38:52;;;;;;;19.90;8.23;;;;;;;1.38;61.96;101724.12;1429633;91;21680;-83
2022/02/27 03:41:19;;;;;;;17.00;8.63;;;;;;;1.43;62.10;101721.73;1424581;91;21786;-83
2022/02/27 03:43:46;;;;;;;30.30;10.07;;;;;;;1.52;61.50;101717.94;1465931;88;21568;-83
2022/02/27 03:46:14;;;;;;;15.80;6.97;;;;;;;1.60;61.47;101723.72;1479927;88;21560;-83
2022/02/27 03:48:49;;;;;;;23.10;8.00;;;;;;;1.62;60.95;101721.91;1451455;88;21918;-83
2022/02/27 03:51:16;;;;;;;12.30;7.53;;;;;;;1.67;60.83;101723.02;1451749;88;21668;-83
2022/02/27 03:53:43;;;;;;;15.27;7.37;;;;;;;1.68;60.67;101717.75;1479546;88;21542;-83
2022/02/27 03:56:13;;;;;;;16.17;7.60;;;;;;;1.74;60.88;101724.03;1476171;88;23414;-83
2022/02/27 03:58:40;;;;;;;12.67;6.70;;;;;;;1.73;60.41;101718.89;1457824;88;22648;-83
2022/02/27 04:01:07;;;;;;;21.57;7.20;;;;;;;1.74;60.26;101720.58;1475592;88;21795;-83
2022/02/27 04:03:36;;;;;;;13.10;6.50;;;;;;;1.72;60.13;101716.71;1478814;88;21592;-83
2022/02/27 04:06:03;;;;;;;14.93;6.77;;;;;;;1.74;60.23;101721.43;1475737;88;21809;-84
2022/02/27 04:08:31;;;;;;;14.53;6.43;;;;;;;1.71;60.39;101717.63;1471178;88;22512;-85
2022/02/27 04:10:59;;;;;;;15.63;5.87;;;;;;;1.69;60.17;101722.52;1475998;88;21569;-83
2022/02/27 04:13:26;;;;;;;20.20;7.67;;;;;;;1.71;60.17;101715.02;1461186;88;21469;-83
2022/02/27 04:15:54;;;;;;;11.60;6.37;;;;;;;1.73;60.37;101714.52;1469661;88;21424;-83
2022/02/27 04:18:21;;;;;;;12.63;6.00;;;;;;;1.72;60.12;101715.41;1477989;88;22658;-83
2022/02/27 04:20:49;;;;;;;11.93;5.87;;;;;;;1.73;60.15;101707.15;1474544;88;21613;-83
2022/02/27 04:23:16;;;;;;;15.23;6.00;;;;;;;1.76;59.99;101706.56;1478431;88;21743;-82
2022/02/27 04:25:44;;;;;;;10.33;5.67;;;;;;;1.73;59.96;101715.83;1477210;88;21720;-83
2022/02/27 04:28:13;;;;;;;12.23;6.03;;;;;;;1.75;59.81;101717.90;1473113;88;21744;-82
2022/02/27 04:30:41;;;;;;;11.10;5.67;;;;;;;1.79;60.20;101712.13;1473438;88;21598;-82
2022/02/27 04:33:09;;;;;;;14.03;5.17;;;;;;;1.73;59.97;101717.13;1473655;88;21567;-82
2022/02/27 04:35:37;;;;;;;18.27;6.50;;;;;;;1.71;60.46;101720.24;1472155;88;21672;-85
2022/02/27 04:38:10;;;;;;;17.33;6.77;;;;;;;1.69;60.14;101719.91;1475444;88;21655;-86
2022/02/27 04:40:37;;;;;;;25.20;7.87;;;;;;;1.67;60.25;101716.06;1470941;88;21678;-86
2022/02/27 04:43:09;;;;;;;17.77;6.27;;;;;;;1.62;60.98;101715.84;1475156;88;22546;-86
2022/02/27 04:45:36;;;;;;;16.67;7.03;;;;;;;1.57;60.57;101721.22;1472441;88;21773;-85
2022/02/27 04:48:04;;;;;;;18.70;7.20;;;;;;;1.57;60.69;101717.31;1474775;88;21785;-84
2022/02/27 04:50:31;;;;;;;18.93;7.37;;;;;;;1.61;60.62;101722.80;1469867;88;23735;-84
2022/02/27 04:53:00;;;;;;;14.10;6.63;;;;;;;1.56;61.05;101728.21;1471961;88;21509;-85
2022/02/27 04:55:28;;;;;;;17.23;8.00;;;;;;;1.53;60.88;101723.11;1474152;88;21735;-86
2022/02/27 04:57:55;;;;;;;15.10;5.97;;;;;;;1.56;60.88;101726.06;1480321;88;21575;-84
2022/02/27 05:00:22;;;;;;;12.10;6.03;;;;;;;1.57;60.74;101725.98;1474376;88;21626;-82
2022/02/27 05:02:50;;;;;;;17.47;6.73;;;;;;;1.54;60.77;101731.32;1479213;88;21561;-83
2022/02/27 05:05:17;;;;;;;18.67;8.20;;;;;;;1.53;60.65;101732.70;1473603;88;21736;-83
2022/02/27 05:07:44;;;;;;;16.43;7.20;;;;;;;1.52;60.84;101738.34;1475110;88;23157;-83
2022/02/27 05:10:12;;;;;;;16.37;8.43;;;;;;;1.47;61.11;101744.67;1475989;88;21546;-83
2022/02/27 05:12:41;;;;;;;15.60;7.43;;;;;;;1.44;60.76;101746.06;1472452;88;21564;-83
2022/02/27 05:15:10;;;;;;;16.30;6.90;;;;;;;1.36;60.98;101743.76;1560207;88;21356;-83
2022/02/27 05:17:37;;;;;;;14.60;6.17;;;;;;;1.23;61.46;101743.34;1559275;88;21343;-84
2022/02/27 05:20:06;;;;;;;17.03;7.57;;;;;;;1.13;61.98;101748.50;1476428;88;21984;-84
2022/02/27 05:22:33;;;;;;;13.93;6.73;;;;;;;1.07;62.01;101755.25;1476653;88;21669;-83
2022/02/27 05:25:01;;;;;;;18.13;7.90;;;;;;;0.98;62.15;101765.97;1476696;88;21740;-84
2022/02/27 05:27:28;;;;;;;13.67;6.53;;;;;;;0.89;62.26;101763.23;1453930;88;22195;-83
2022/02/27 05:29:55;;;;;;;26.77;9.10;;;;;;;0.82;62.96;101774.78;1474092;88;22001;-82
2022/02/27 05:32:23;;;;;;;18.30;7.53;;;;;;;0.80;62.74;101774.82;1473929;88;21332;-82
2022/02/27 05:34:51;;;;;;;15.97;6.30;;;;;;;0.71;63.71;101773.84;1471097;88;21294;-81
2022/02/27 05:37:18;;;;;;;17.73;8.08;;;;;;;0.69;63.66;101783.45;1474141;88;22106;-83
2022/02/27 05:39:45;;;;;;;18.40;7.35;;;;;;;0.65;63.66;101787.08;1459924;88;21362;-83
2022/02/27 05:42:12;;;;;;;14.15;7.55;;;;;;;0.64;63.39;101787.53;1475175;88;21465;-83
2022/02/27 05:44:39;;;;;;;13.75;7.28;;;;;;;0.61;64.00;101790.70;1470314;88;21383;-82
2022/02/27 05:47:07;;;;;;;13.40;7.45;;;;;;;0.61;64.11;101783.73;1468000;88;21310;-82
2022/02/27 05:49:47;;;;;;;13.85;7.60;;;;;;;0.62;64.13;101790.63;1465795;88;21423;-83
2022/02/27 05:52:15;;;;;;;14.93;7.95;;;;;;;0.63;64.47;101794.08;1469418;88;21479;-83
2022/02/27 05:54:42;;;;;;;19.15;8.40;;;;;;;0.68;64.19;101798.24;1476264;88;21442;-84
2022/02/27 05:57:09;;;;;;;19.67;9.08;;;;;;;0.72;64.03;101805.95;1476259;88;21458;-84
2022/02/27 05:59:38;;;;;;;18.67;8.63;;;;;;;0.72;64.53;101796.41;1474451;88;21516;-85
2022/02/27 06:02:05;;;;;;;21.73;9.33;;;;;;;0.72;64.62;101801.62;1475820;88;22197;-83
2022/02/27 06:04:32;;;;;;;18.05;9.58;;;;;;;0.73;64.62;101805.92;1476075;88;21706;-83
2022/02/27 06:07:02;;;;;;;15.38;8.33;;;;;;;0.76;64.42;101805.81;1472896;87;21383;-83
2022/02/27 06:09:29;;;;;;;19.73;9.18;;;;;;;0.81;64.42;101806.52;1468851;88;21382;-83
2022/02/27 06:11:57;;;;;;;17.60;7.67;;;;;;;0.84;64.54;101809.02;1472097;88;21486;-82
2022/02/27 06:14:26;;;;;;;22.32;9.93;;;;;;;0.83;64.75;101805.99;1429916;89;21533;-83
2022/02/27 06:16:53;;;;;;;20.87;8.87;;;;;;;0.97;63.90;101796.87;1451250;90;21390;-85
2022/02/27 06:19:20;;;;;;;14.53;7.57;;;;;;;1.03;63.64;101801.86;1459414;88;21701;-84
2022/02/27 06:21:47;;;;;;;20.70;8.83;;;;;;;1.13;63.59;101805.88;1468489;88;22153;-85
2022/02/27 06:24:15;;;;;;;15.83;8.57;;;;;;;1.19;63.26;101809.56;1472454;88;21860;-83
2022/02/27 06:26:42;;;;;;;16.37;8.50;;;;;;;1.26;63.14;101814.95;1472240;88;21757;-85
2022/02/27 06:29:09;;;;;;;17.35;8.38;;;;;;;1.32;62.74;101814.77;1469010;88;21660;-80
2022/02/27 06:31:37;;;;;;;18.07;8.67;;;;;;;1.42;62.55;101818.34;1471752;88;21463;-80
2022/02/27 06:34:04;;;;;;;24.13;9.63;;;;;;;1.51;62.27;101826.68;1471947;88;21617;-80
2022/02/27 06:36:31;;;;;;;13.80;8.30;;;;;;;1.63;62.04;101825.38;1468305;88;21771;-80
2022/02/27 06:38:59;;;;;;;16.57;7.87;;;;;;;1.69;61.59;101826.91;1471457;88;21573;-80
2022/02/27 06:41:26;;;;;;;21.10;8.67;;;;;;;1.72;61.17;101818.51;1468954;88;21682;-80
2022/02/27 06:43:53;;;;;;;17.63;8.57;;;;;;;1.81;60.95;101830.37;1474793;88;21685;-80
2022/02/27 06:46:20;;;;;;;24.43;10.30;;;;;;;1.91;60.87;101838.73;1465618;88;21604;-80
2022/02/27 06:48:57;;;;;;;21.90;8.20;;;;;;;1.94;60.09;101836.00;1467608;88;21850;-79
2022/02/27 06:51:25;;;;;;;17.23;8.43;;;;;;;2.05;60.15;101835.14;1457892;88;21807;-79
2022/02/27 06:53:52;;;;;;;23.67;10.33;;;;;;;2.19;59.47;101840.69;1480022;87;21655;-80
2022/02/27 06:56:23;;;;;;;20.30;8.60;;;;;;;2.32;58.98;101838.90;1478391;87;21677;-83
2022/02/27 06:58:51;;;;;;;20.52;8.45;;;;;;;2.45;58.53;101844.05;1484562;87;21426;-82
2022/02/27 07:01:18;;;;;;;15.57;7.60;;;;;;;2.54;58.25;101846.29;1483580;87;21420;-81
2022/02/27 07:03:45;;;;;;;14.53;8.77;;;;;;;2.61;57.72;101846.42;1483748;87;21737;-86
2022/02/27 07:06:12;;;;;;;18.40;7.67;;;;;;;2.73;57.82;101852.07;1483857;87;21738;-86
2022/02/27 07:08:40;;;;;;;21.20;7.13;;;;;;;2.81;56.91;101855.23;1468829;87;21739;-84
2022/02/27 07:11:07;;;;;;;17.40;7.23;;;;;;;2.89;56.53;101857.08;1501538;88;21531;-84
2022/02/27 07:13:34;;;;;;;14.73;6.97;;;;;;;2.98;56.05;101865.84;1477188;88;21580;-84
2022/02/27 07:16:02;;;;;;;12.63;5.63;;;;;;;3.02;55.66;101862.64;1474649;88;21534;-85
2022/02/27 07:18:35;;;;;;;12.97;6.67;;;;;;;3.04;55.03;101868.20;1472650;88;21592;-85
2022/02/27 07:21:02;;;;;;;13.17;7.17;;;;;;;3.26;56.05;101869.93;1435492;89;22838;-84
2022/02/27 07:23:29;;;;;;;14.03;6.80;;;;;;;3.43;55.26;101866.59;1453421;89;21668;-85
2022/02/27 07:25:57;;;;;;;16.80;5.97;;;;;;;3.61;54.60;101870.55;1455859;89;21806;-85
2022/02/27 07:28:24;;;;;;;12.90;6.13;;;;;;;3.84;53.94;101868.68;1450805;89;21611;-85
2022/02/27 07:30:54;;;;;;;17.87;6.97;;;;;;;4.12;52.63;101871.36;1451468;89;21754;-85
2022/02/27 07:33:23;;;;;;;19.40;8.60;;;;;;;4.12;52.63;101871.36;1460302;88;21868;-85
2022/02/27 07:35:51;;;;;;;13.40;7.30;;;;;;;4.14;53.33;101866.88;1467707;88;21936;-85
2022/02/27 07:38:18;;;;;;;14.10;6.73;;;;;;;4.28;52.57;101874.95;1473689;88;21814;-85
2022/02/27 07:40:48;;;;;;;14.77;6.90;;;;;;;4.32;53.04;101875.68;1472599;88;21769;-84
2022/02/27 07:43:15;;;;;;;12.50;5.40;;;;;;;4.45;52.02;101880.25;1506590;88;23087;-85
2022/02/27 07:45:42;;;;;;;14.83;6.67;;;;;;;4.45;52.02;101873.17;1557751;88;21851;-85
2022/02/27 07:48:10;;;;;;;17.47;6.67;;;;;;;4.47;53.02;101873.17;1395363;88;21974;-84
2022/02/27 07:50:37;;;;;;;16.53;7.03;;;;;;;4.55;51.94;101889.02;1428660;88;21922;-85
2022/02/27 07:53:05;;;;;;;10.73;5.67;;;;;;;4.62;52.38;101887.31;1498305;88;23007;-85
2022/02/27 07:55:38;;;;;;;15.00;6.93;;;;;;;4.63;51.97;101881.61;1478490;88;23026;-86
2022/02/27 07:58:06;;;;;;;12.10;5.90;;;;;;;4.77;51.72;101881.79;1472526;88;22105;-86
2022/02/27 08:00:36;;;;;;;13.47;6.17;;;;;;;4.92;52.00;101871.88;1475358;88;23630;-86
2022/02/27 08:03:04;;;;;;;12.23;5.83;;;;;;;5.15;51.49;101877.73;1473900;88;22174;-86
2022/02/27 08:05:31;;;;;;;21.83;7.60;;;;;;;5.23;49.62;101872.95;1473141;88;21354;-85
2022/02/27 08:07:58;;;;;;;11.57;5.63;;;;;;;5.39;49.23;101864.68;1473735;88;22521;-86
2022/02/27 08:10:36;;;;;;;14.43;5.57;;;;;;;5.39;49.23;101864.68;1472813;87;21560;-86
2022/02/27 08:13:04;;;;;;;18.67;5.93;;;;;;;5.53;48.23;101863.97;1472584;88;22022;-85
2022/02/27 08:15:32;;;;;;;15.80;6.07;;;;;;;5.62;47.14;101867.89;1471071;88;21542;-85
2022/02/27 08:17:59;;;;;;;14.97;6.30;;;;;;;5.75;46.87;101863.67;1471252;88;21347;-85
2022/02/27 08:20:35;;;;;;;8.83;5.57;;;;;;;5.88;48.49;101867.35;1476382;88;21508;-85
2022/02/27 08:23:02;;;;;;;10.37;3.97;;;;;;;6.07;46.62;101864.63;1475517;88;21474;-84
2022/02/27 08:25:33;;;;;;;9.27;3.97;;;;;;;6.22;45.44;101857.67;1473015;88;21383;-84
2022/02/27 08:28:00;;;;;;;12.27;5.43;;;;;;;6.43;46.51;101864.83;1473023;88;21413;-86
2022/02/27 08:30:28;;;;;;;8.53;3.60;;;;;;;6.67;46.27;101861.75;1475594;88;21370;-85
2022/02/27 08:32:55;;;;;;;9.83;4.23;;;;;;;6.86;45.22;101852.34;1471439;88;21398;-86
2022/02/27 08:35:22;;;;;;;10.20;3.97;;;;;;;7.03;42.74;101850.89;1478351;88;21516;-86
2022/02/27 08:37:49;;;;;;;6.80;3.83;;;;;;;7.10;44.18;101845.62;1472687;88;21523;-85
2022/02/27 08:40:20;;;;;;;10.47;4.03;;;;;;;7.02;42.15;101842.63;1474423;88;21532;-85
2022/02/27 08:42:54;;;;;;;11.03;3.73;;;;;;;7.15;44.54;101846.21;1474538;88;21332;-85
2022/02/27 08:45:22;;;;;;;12.10;3.93;;;;;;;7.34;42.51;101834.60;1473658;88;21391;-85
2022/02/27 08:47:52;;;;;;;7.50;3.47;;;;;;;7.53;42.10;101841.74;1541469;88;21273;-87
2022/02/27 08:50:25;;;;;;;9.80;4.07;;;;;;;7.71;42.26;101833.65;1559906;88;21464;-86
2022/02/27 08:52:52;;;;;;;6.97;3.70;;;;;;;7.85;41.93;101828.37;1559907;88;21318;-86
2022/02/27 08:55:20;;;;;;;9.10;4.07;;;;;;;7.84;42.27;101830.16;1511981;88;21287;-86
2022/02/27 08:57:48;;;;;;;12.17;4.80;;;;;;;7.84;40.82;101824.05;1473268;88;21302;-85
2022/02/27 09:00:18;;;;;;;11.20;4.20;;;;;;;7.79;40.28;101827.44;1474014;88;21443;-86
2022/02/27 09:02:47;;;;;;;9.18;4.03;;;;;;;8.02;41.95;101826.84;1416077;88;21214;-85
2022/02/27 09:05:24;;;;;;;10.33;4.87;;;;;;;8.29;41.79;101832.16;1476484;88;22491;-84
2022/02/27 09:07:51;;;;;;;11.10;4.27;;;;;;;8.46;41.08;101824.96;1456346;88;21568;-85
2022/02/27 09:10:20;;;;;;;7.40;3.73;;;;;;;8.54;39.22;101826.16;1454983;87;22379;-84
2022/02/27 09:12:48;;;;;;;6.20;2.93;;;;;;;8.58;37.75;101823.70;1457860;88;21516;-84
2022/02/27 09:15:15;;;;;;;25.37;15.40;;;;;;;8.76;38.98;101826.08;1473761;88;21769;-85
2022/02/27 09:17:43;;;;;;;30.70;17.70;;;;;;;8.96;38.38;101829.55;1473918;88;21457;-85
2022/02/27 09:20:10;;;;;;;9.57;4.73;;;;;;;8.92;36.18;101815.33;1473435;88;21375;-85
2022/02/27 09:22:55;;;;;;;13.70;8.73;;;;;;;9.17;39.33;101806.59;1474787;88;21406;-84
2022/02/27 09:25:31;;;;;;;12.80;8.20;;;;;;;9.31;36.37;101817.06;1554123;88;21429;-85
2022/02/27 09:27:59;;;;;;;6.80;3.20;;;;;;;9.43;36.10;101813.56;1541198;88;21259;-86
2022/02/27 09:30:26;;;;;;;6.80;4.23;;;;;;;9.74;37.96;101810.59;1523664;88;21251;-86
2022/02/27 09:33:04;;;;;;;8.00;4.97;;;;;;;10.05;37.90;101805.29;1557414;88;21332;-84
2022/02/27 09:35:31;;;;;;;8.37;3.87;;;;;;;10.39;35.51;101809.00;1529467;88;21478;-85
2022/02/27 09:38:00;;;;;;;11.47;4.87;;;;;;;10.89;35.43;101795.59;1473652;87;21316;-84
2022/02/27 09:40:28;;;;;;;5.20;2.63;;;;;;;11.34;34.86;101800.50;1474524;87;21771;-85
2022/02/27 09:42:56;;;;;;;7.73;4.70;;;;;;;11.66;34.19;101799.30;1430264;91;21581;-85
2022/02/27 09:45:26;;;;;;;4.10;2.97;;;;;;;12.17;32.83;101797.94;1432328;91;21502;-85
2022/02/27 09:47:55;;;;;;;6.62;3.47;;;;;;;12.69;32.67;101798.09;1475759;88;21555;-86
2022/02/27 09:50:25;;;;;;;4.83;3.03;;;;;;;13.23;31.98;101789.08;1472068;88;22320;-85
2022/02/27 09:52:58;;;;;;;4.17;2.23;;;;;;;13.65;30.14;101785.05;1471456;87;21533;-86
2022/02/27 09:55:25;;;;;;;8.10;3.50;;;;;;;13.81;27.36;101784.52;1471421;87;22749;-85
2022/02/27 09:57:59;;;;;;;11.13;3.67;;;;;;;14.25;30.19;101783.23;1472160;88;21522;-85
2022/02/27 10:00:27;;;;;;;9.03;3.50;;;;;;;14.51;29.33;101786.68;1430782;91;21708;-85
2022/02/27 10:03:14;;;;;;;5.93;2.90;;;;;;;14.53;27.45;101780.27;1431076;91;21534;-85
2022/02/27 10:05:45;;;;;;;10.70;4.80;;;;;;;14.72;29.24;101785.22;1428786;91;21516;-86
2022/02/27 10:08:15;;;;;;;6.93;5.00;;;;;;;14.87;27.45;101785.13;1488355;88;22484;-86
2022/02/27 10:11:00;;;;;;;4.08;2.00;;;;;;;15.10;27.46;101777.17;1432289;91;22684;-86
2022/02/27 10:13:34;;;;;;;6.13;2.80;;;;;;;15.22;26.85;101780.52;1477249;88;22407;-86
2022/02/27 10:16:11;;;;;;;5.97;3.30;;;;;;;15.46;27.32;101776.48;1476036;88;22437;-89
2022/02/27 10:18:47;;;;;;;5.17;3.20;;;;;;;15.56;27.63;101775.94;1473844;88;21441;-89
2022/02/27 10:21:25;;;;;;;4.97;3.00;;;;;;;15.74;26.92;101782.22;1476399;88;22462;-90
2022/02/27 10:24:08;;;;;;;12.07;7.27;;;;;;;15.52;26.09;101783.41;1470682;88;21448;-89
2022/02/27 10:26:38;;;;;;;6.20;3.23;;;;;;;15.99;28.41;101769.13;1475781;88;21338;-89
2022/02/27 10:29:24;;;;;;;11.38;7.62;;;;;;;16.17;26.43;101768.67;1457991;88;21493;-91
2022/02/27 10:31:56;;;;;;;7.07;4.57;;;;;;;15.85;24.24;101758.46;1476083;88;22350;-90
2022/02/27 10:34:28;;;;;;;6.83;4.03;;;;;;;15.77;26.54;101763.23;1473638;88;21411;-91
2022/02/27 10:37:09;;;;;;;6.47;3.60;;;;;;;16.10;27.35;101755.57;1476198;88;21651;-89
2022/02/27 10:39:46;;;;;;;5.80;3.17;;;;;;;16.20;27.16;101752.34;1428152;91;21627;-89
2022/02/27 10:42:20;;;;;;;11.53;3.50;;;;;;;16.27;26.93;101749.89;1431534;91;21397;-87
2022/02/27 10:45:04;;;;;;;7.53;4.63;;;;;;;16.50;27.12;101739.58;1429960;91;21375;-87
2022/02/27 10:47:37;;;;;;;11.63;6.03;;;;;;;16.54;26.84;101734.25;1472688;91;21413;-86
2022/02/27 10:50:11;;;;;;;6.15;3.00;;;;;;;16.36;24.49;101740.12;1510587;91;21317;-88
2022/02/27 10:52:44;;;;;;;6.35;3.25;;;;;;;16.59;26.43;101732.46;1457319;89;21943;-82
2022/02/27 10:55:14;;;;;;;5.65;3.30;;;;;;;16.59;25.95;101728.45;1474261;88;21656;-82
2022/02/27 10:57:45;;;;;;;5.12;3.65;;;;;;;16.28;25.26;101726.69;1498772;88;21361;-82
2022/02/27 11:00:34;;;;;;;5.03;3.10;;;;;;;16.30;24.76;101721.54;1417309;92;21650;-82
2022/02/27 11:03:09;;;;;;;4.92;3.30;;;;;;;16.32;24.91;101717.39;1415397;92;22175;-83
2022/02/27 11:05:39;;;;;;;6.22;3.30;;;;;;;16.31;25.69;101719.70;1465605;89;22086;-82
2022/02/27 11:08:10;;;;;;;5.42;3.30;;;;;;;16.16;25.57;101721.58;1418772;92;21487;-83
2022/02/27 11:10:42;;;;;;;4.35;2.40;;;;;;;16.09;24.59;101723.69;1429374;91;21413;-83
2022/02/27 11:13:12;;;;;;;4.30;2.72;;;;;;;16.48;25.41;101713.50;1457572;89;23919;-82
2022/02/27 11:15:46;;;;;;;5.75;2.58;;;;;;;16.39;24.37;101711.26;1494455;89;21435;-83
2022/02/27 11:18:13;;;;;;;4.87;2.92;;;;;;;16.53;25.44;101713.88;1449890;89;21545;-83
2022/02/27 11:20:41;;;;;;;9.15;2.83;;;;;;;16.69;24.86;101708.66;1445436;89;21342;-82
2022/02/27 11:23:11;;;;;;;5.08;2.47;;;;;;;16.47;24.58;101704.64;1453779;89;22623;-83
2022/02/27 11:25:38;;;;;;;5.65;2.83;;;;;;;15.89;23.09;101705.63;1447181;89;21493;-82
2022/02/27 11:28:12;;;;;;;5.22;2.75;;;;;;;16.26;25.04;101707.33;1432558;90;21406;-82
2022/02/27 11:30:46;;;;;;;4.40;2.45;;;;;;;15.98;24.99;101704.72;1440089;89;21602;-84
2022/02/27 11:33:21;;;;;;;4.37;2.58;;;;;;;15.72;23.38;101700.11;1454382;89;21509;-82
2022/02/27 11:35:58;;;;;;;6.60;2.60;;;;;;;15.27;23.88;101699.55;1455667;89;22396;-82